Time;durP1;ratioP1;P1;durP2;ratioP2;P2;SDS_P1;SDS_P2;PMS_P1;PMS_P2;Temp;Humidity;BMP_temperature;BMP_pressure;BME280_temperature;BME280_humidity;BME280_pressure;Samples;Min_cycle;Max_cycle;Signal;HPM_P1;HPM_P2
2023/11/22 00:00:59;;;;;;;15.35;13.88;;;2.10;99.90;;;;;;5015141;28;20065;-71
2023/11/22 00:03:26;;;;;;;15.85;13.20;;;2.10;99.90;;;;;;5025372;28;20507;-72
2023/11/22 00:05:53;;;;;;;16.10;14.00;;;2.10;99.90;;;;;;5031630;28;20076;-70
2023/11/22 00:08:19;;;;;;;16.75;13.30;;;2.00;99.90;;;;;;5023636;28;20416;-73
2023/11/22 00:10:46;;;;;;;18.52;13.88;;;2.00;99.90;;;;;;5032066;28;20037;-72
2023/11/22 00:13:14;;;;;;;16.17;12.45;;;2.00;99.90;;;;;;5006063;28;20056;-72
2023/11/22 00:15:41;;;;;;;20.38;13.68;;;1.90;99.90;;;;;;5026725;28;20064;-72
2023/11/22 00:18:08;;;;;;;21.42;13.82;;;1.90;99.90;;;;;;5030355;28;20055;-72
2023/11/22 00:20:34;;;;;;;17.52;13.07;;;1.80;99.90;;;;;;5028055;28;20053;-71
2023/11/22 00:23:03;;;;;;;18.65;14.20;;;1.80;99.90;;;;;;5030983;28;20049;-73
2023/11/22 00:25:30;;;;;;;18.58;13.05;;;1.90;99.90;;;;;;5026690;28;20053;-71
2023/11/22 00:27:56;;;;;;;19.27;14.85;;;1.90;99.90;;;;;;5028370;28;20059;-71
2023/11/22 00:30:23;;;;;;;19.92;13.68;;;2.00;99.90;;;;;;5012364;28;20049;-72
2023/11/22 00:32:51;;;;;;;19.00;14.75;;;2.10;99.90;;;;;;5025591;28;20141;-72
2023/11/22 00:35:18;;;;;;;17.60;13.77;;;2.20;99.90;;;;;;5024168;28;20095;-71
2023/11/22 00:37:46;;;;;;;22.55;14.10;;;2.10;99.90;;;;;;5031027;28;20647;-72
2023/11/22 00:40:13;;;;;;;19.15;15.20;;;2.10;99.90;;;;;;5024645;28;20041;-73
2023/11/22 00:42:42;;;;;;;22.52;15.07;;;2.00;99.90;;;;;;5029702;28;20045;-72
2023/11/22 00:45:10;;;;;;;24.55;15.43;;;2.00;99.90;;;;;;5029471;28;20499;-73
2023/11/22 00:47:37;;;;;;;19.55;14.48;;;2.00;99.90;;;;;;5029527;28;20654;-73
2023/11/22 00:50:04;;;;;;;21.75;14.90;;;1.90;99.90;;;;;;5031687;28;20044;-72
2023/11/22 00:52:31;;;;;;;18.77;16.00;;;1.80;99.90;;;;;;5027639;28;20565;-72
2023/11/22 00:54:59;;;;;;;17.40;13.57;;;1.70;99.90;;;;;;5029434;28;20538;-72
2023/11/22 00:57:30;;;;;;;21.98;16.48;;;1.80;99.90;;;;;;5028532;28;20033;-73
2023/11/22 00:59:57;;;;;;;18.80;15.63;;;1.70;99.90;;;;;;5029825;28;20056;-73
2023/11/22 01:02:24;;;;;;;18.02;15.80;;;1.60;99.90;;;;;;5025775;28;20680;-72
2023/11/22 01:04:50;;;;;;;17.35;15.55;;;1.60;99.90;;;;;;5043598;28;20518;-72
2023/11/22 01:07:17;;;;;;;19.30;17.30;;;1.60;99.90;;;;;;5025746;28;20115;-73
2023/11/22 01:09:44;;;;;;;20.83;18.30;;;1.60;99.90;;;;;;5027684;28;20046;-74
2023/11/22 01:12:12;;;;;;;20.60;18.08;;;1.40;99.90;;;;;;5027418;28;20049;-73
2023/11/22 01:14:39;;;;;;;21.05;18.83;;;1.50;99.90;;;;;;5026091;28;20041;-73
2023/11/22 01:17:06;;;;;;;24.23;20.13;;;1.40;99.90;;;;;;5010478;28;20055;-74
2023/11/22 01:19:34;;;;;;;21.15;19.02;;;1.40;99.90;;;;;;5026727;28;20589;-73
2023/11/22 01:22:01;;;;;;;22.65;20.42;;;1.30;99.90;;;;;;5028059;28;20041;-72
2023/11/22 01:24:29;;;;;;;22.70;20.42;;;1.20;99.90;;;;;;5045423;28;20553;-73
2023/11/22 01:26:55;;;;;;;23.73;20.85;;;1.20;99.90;;;;;;5028124;28;20040;-74
2023/11/22 01:29:23;;;;;;;24.08;21.33;;;1.10;99.90;;;;;;5012698;28;20045;-74
2023/11/22 01:31:50;;;;;;;24.35;21.40;;;1.00;99.90;;;;;;5031418;28;20061;-72
2023/11/22 01:34:17;;;;;;;24.88;22.20;;;0.90;99.90;;;;;;5023163;28;20143;-72
2023/11/22 01:36:44;;;;;;;26.52;23.10;;;0.80;99.90;;;;;;5024864;28;20041;-73
2023/11/22 01:39:14;;;;;;;27.85;23.67;;;0.80;99.90;;;;;;5030328;28;20045;-74
2023/11/22 01:41:44;;;;;;;26.35;23.67;;;0.80;99.90;;;;;;5031630;28;21516;-72
2023/11/22 01:44:12;;;;;;;30.48;25.23;;;0.70;99.90;;;;;;5033492;28;20045;-73
2023/11/22 01:46:39;;;;;;;27.42;24.10;;;0.60;99.90;;;;;;5010984;28;20045;-73
2023/11/22 01:49:06;;;;;;;28.25;25.25;;;0.60;99.90;;;;;;5016182;28;20060;-75
2023/11/22 01:51:34;;;;;;;32.95;24.70;;;0.70;99.90;;;;;;5027709;28;20412;-73
2023/11/22 01:54:01;;;;;;;30.85;24.65;;;0.60;99.90;;;;;;5023677;28;20061;-71
2023/11/22 01:56:29;;;;;;;27.17;24.27;;;0.60;99.90;;;;;;5025425;28;20041;-72
2023/11/22 01:58:57;;;;;;;33.03;25.95;;;0.50;99.90;;;;;;5010228;28;20484;-72
2023/11/22 02:01:28;;;;;;;28.02;23.70;;;0.50;99.90;;;;;;5020609;28;20049;-73
2023/11/22 02:03:55;;;;;;;33.85;24.98;;;0.40;99.90;;;;;;5008003;28;20057;-73
2023/11/22 02:06:23;;;;;;;28.08;24.05;;;0.30;99.90;;;;;;5016562;28;20053;-72
2023/11/22 02:08:51;;;;;;;28.60;23.77;;;0.30;99.90;;;;;;5020682;28;20144;-73
2023/11/22 02:11:22;;;;;;;35.35;25.98;;;0.20;99.90;;;;;;4999492;28;20052;-72
2023/11/22 02:13:50;;;;;;;35.08;25.52;;;0.20;99.90;;;;;;5022466;28;20132;-72
2023/11/22 02:16:18;;;;;;;30.88;26.13;;;0.30;99.90;;;;;;4996230;28;20136;-71
2023/11/22 02:18:49;;;;;;;30.30;26.10;;;0.30;99.90;;;;;;5018601;28;20111;-73
2023/11/22 02:21:21;;;;;;;34.35;26.35;;;0.10;99.90;;;;;;5028137;28;20098;-70
2023/11/22 02:23:48;;;;;;;34.63;26.02;;;0.10;99.90;;;;;;5029046;28;20103;-73
2023/11/22 02:26:18;;;;;;;36.58;26.10;;;0.00;99.90;;;;;;5011707;28;20124;-71
2023/11/22 02:28:45;;;;;;;33.15;26.60;;;0.00;99.90;;;;;;5021627;28;20055;-72
2023/11/22 02:31:12;;;;;;;37.40;25.73;;;0.00;99.90;;;;;;5023509;28;20076;-73
2023/11/22 02:33:39;;;;;;;35.08;27.35;;;-0.10;99.90;;;;;;5013839;28;20111;-72
2023/11/22 02:36:07;;;;;;;38.22;27.20;;;-0.10;99.90;;;;;;5007881;28;20053;-71
2023/11/22 02:38:35;;;;;;;37.75;27.30;;;0.10;99.90;;;;;;5023991;28;20044;-73
2023/11/22 02:41:02;;;;;;;39.00;25.75;;;0.20;99.90;;;;;;5006527;28;20076;-72
2023/11/22 02:43:30;;;;;;;40.28;26.05;;;0.20;99.90;;;;;;5020322;28;20569;-72
2023/11/22 02:45:57;;;;;;;34.60;25.75;;;-0.10;99.90;;;;;;5025844;28;20052;-73
2023/11/22 02:48:24;;;;;;;35.08;24.73;;;-0.10;99.90;;;;;;5022180;28;20049;-73
2023/11/22 02:50:54;;;;;;;33.25;24.58;;;-0.10;99.90;;;;;;5007088;28;20597;-72
2023/11/22 02:53:21;;;;;;;43.30;28.50;;;-0.30;99.90;;;;;;5020385;28;20056;-73
2023/11/22 02:55:48;;;;;;;38.17;25.30;;;-0.40;99.90;;;;;;5020351;28;20041;-73
2023/11/22 02:58:16;;;;;;;39.33;26.13;;;-0.30;99.90;;;;;;5020730;28;20040;-75
2023/11/22 03:00:46;;;;;;;43.83;27.77;;;-0.30;99.90;;;;;;5023056;28;20053;-72
2023/11/22 03:03:13;;;;;;;40.13;27.05;;;-0.30;99.90;;;;;;5025446;28;20130;-73
2023/11/22 03:05:40;;;;;;;39.72;27.15;;;-0.40;99.90;;;;;;5008527;28;20399;-72
2023/11/22 03:08:07;;;;;;;40.72;27.92;;;-0.40;99.90;;;;;;5015675;28;20124;-71
2023/11/22 03:10:35;;;;;;;36.97;27.98;;;-0.40;99.90;;;;;;5006347;28;20041;-72
2023/11/22 03:13:04;;;;;;;43.95;28.50;;;-0.50;99.90;;;;;;5026142;28;20480;-71
2023/11/22 03:15:31;;;;;;;48.75;28.98;;;-0.50;99.90;;;;;;5018613;28;20167;-72
2023/11/22 03:17:58;;;;;;;42.10;28.25;;;-0.30;99.90;;;;;;5009238;28;20112;-74
2023/11/22 03:20:26;;;;;;;42.78;27.95;;;-0.10;99.90;;;;;;5015540;28;20116;-74
2023/11/22 03:22:53;;;;;;;41.75;26.98;;;-0.10;99.90;;;;;;5021711;28;20068;-74
2023/11/22 03:25:20;;;;;;;41.53;27.85;;;-0.20;99.90;;;;;;5013405;28;20570;-73
2023/11/22 03:27:47;;;;;;;41.63;25.85;;;-0.20;99.90;;;;;;5028148;28;21248;-74
2023/11/22 03:30:15;;;;;;;48.40;28.77;;;-0.10;99.90;;;;;;5026131;28;20043;-74
2023/11/22 03:32:43;;;;;;;35.75;25.27;;;-0.30;99.90;;;;;;5002211;28;20047;-74
2023/11/22 03:35:11;;;;;;;35.90;26.30;;;-0.40;99.90;;;;;;5004852;28;20649;-75
2023/11/22 03:37:38;;;;;;;43.22;27.95;;;-0.60;99.90;;;;;;5019751;28;20500;-75
2023/11/22 03:40:06;;;;;;;43.05;27.70;;;-0.60;99.90;;;;;;5022474;28;20057;-75
2023/11/22 03:42:33;;;;;;;42.53;28.35;;;-0.60;99.90;;;;;;5024276;28;20092;-73
2023/11/22 03:44:59;;;;;;;45.97;28.33;;;-0.70;99.90;;;;;;5022509;28;20467;-74
2023/11/22 03:47:26;;;;;;;45.22;29.35;;;-0.70;99.90;;;;;;5040820;28;20665;-74
2023/11/22 03:49:53;;;;;;;44.30;28.55;;;-0.80;99.90;;;;;;5024858;28;20053;-74
2023/11/22 03:52:20;;;;;;;36.80;27.23;;;-0.90;99.90;;;;;;5017837;28;20645;-75
2023/11/22 03:54:47;;;;;;;43.67;28.80;;;-0.90;99.90;;;;;;5024894;28;20033;-74
2023/11/22 03:57:13;;;;;;;43.20;28.65;;;-1.00;99.90;;;;;;5020193;28;20042;-75
2023/11/22 03:59:41;;;;;;;43.05;28.55;;;-0.90;99.90;;;;;;5022528;28;20612;-73
2023/11/22 04:02:08;;;;;;;43.85;28.15;;;-1.00;99.90;;;;;;5030164;28;20135;-74
2023/11/22 04:04:36;;;;;;;41.17;27.73;;;-0.80;99.90;;;;;;5030701;28;20049;-73
2023/11/22 04:07:03;;;;;;;37.88;27.65;;;-0.80;99.90;;;;;;5030518;28;20111;-73
2023/11/22 04:09:30;;;;;;;44.47;28.15;;;-0.90;99.90;;;;;;5019690;28;20061;-74
2023/11/22 04:11:57;;;;;;;45.40;27.52;;;-1.00;99.90;;;;;;5012441;28;20111;-73
2023/11/22 04:14:27;;;;;;;49.67;28.05;;;-0.90;99.90;;;;;;5023162;28;20313;-73
2023/11/22 04:16:54;;;;;;;42.63;27.27;;;-1.00;99.90;;;;;;5013241;28;20049;-73
2023/11/22 04:19:21;;;;;;;45.22;28.60;;;-1.10;99.90;;;;;;5032626;28;20045;-73
2023/11/22 04:21:49;;;;;;;47.33;27.85;;;-1.10;99.90;;;;;;5016015;28;20128;-74
2023/11/22 04:24:16;;;;;;;49.00;28.98;;;-1.10;99.90;;;;;;5024458;28;20049;-72
2023/11/22 04:26:45;;;;;;;37.83;27.50;;;-1.10;99.90;;;;;;5028610;28;20063;-74
2023/11/22 04:29:14;;;;;;;43.60;27.30;;;-1.20;99.90;;;;;;5031490;28;20116;-74
2023/11/22 04:31:41;;;;;;;45.85;28.70;;;-1.20;99.90;;;;;;5021837;28;20041;-74
2023/11/22 04:34:08;;;;;;;43.88;28.13;;;-1.30;99.90;;;;;;5027719;28;20542;-74
2023/11/22 04:36:35;;;;;;;36.22;27.08;;;-1.30;99.90;;;;;;5012579;28;20037;-73
2023/11/22 04:39:03;;;;;;;40.13;27.52;;;-1.40;99.90;;;;;;5028284;28;20041;-74
2023/11/22 04:41:30;;;;;;;40.28;28.70;;;-1.30;99.90;;;;;;5020688;28;20060;-75
2023/11/22 04:43:57;;;;;;;40.72;27.35;;;-1.20;99.90;;;;;;5029678;28;20057;-74
2023/11/22 04:46:24;;;;;;;36.33;26.55;;;-1.20;99.90;;;;;;5025180;28;20132;-75
2023/11/22 04:48:51;;;;;;;37.45;27.55;;;-1.20;99.90;;;;;;5027029;28;20056;-73
2023/11/22 04:51:18;;;;;;;44.13;27.40;;;-1.10;99.90;;;;;;5028025;28;20142;-74
2023/11/22 04:53:45;;;;;;;40.78;28.45;;;-1.20;99.90;;;;;;5024273;28;20076;-74
2023/11/22 04:56:12;;;;;;;45.80;28.63;;;-1.20;99.90;;;;;;5021654;28;20049;-72
2023/11/22 04:58:39;;;;;;;44.03;28.38;;;-1.30;99.90;;;;;;5015543;28;20227;-73
2023/11/22 05:01:06;;;;;;;44.30;29.35;;;-1.30;99.90;;;;;;5028432;28;20559;-73
2023/11/22 05:03:33;;;;;;;40.45;27.52;;;-1.30;99.90;;;;;;5017103;28;20029;-73
2023/11/22 05:06:00;;;;;;;44.40;27.92;;;-1.00;99.90;;;;;;5026778;28;20071;-73
2023/11/22 05:08:27;;;;;;;43.78;28.15;;;-1.00;99.90;;;;;;5022575;28;20103;-72
2023/11/22 05:10:54;;;;;;;39.58;27.35;;;-1.10;99.90;;;;;;5003848;28;20522;-73
2023/11/22 05:13:22;;;;;;;46.55;27.33;;;-1.00;99.90;;;;;;5011224;28;20103;-73
2023/11/22 05:15:50;;;;;;;47.53;27.15;;;-0.90;99.90;;;;;;5021663;28;20045;-72
2023/11/22 05:18:17;;;;;;;41.30;25.50;;;-0.90;99.90;;;;;;5009818;28;20535;-73
2023/11/22 05:20:44;;;;;;;37.08;26.17;;;-1.00;99.90;;;;;;5025558;28;20049;-72
2023/11/22 05:23:12;;;;;;;40.42;25.25;;;-1.20;99.90;;;;;;5006645;28;20518;-74
2023/11/22 05:25:40;;;;;;;35.90;24.77;;;-1.30;99.90;;;;;;5019365;28;20045;-73
2023/11/22 05:28:07;;;;;;;42.75;26.58;;;-1.30;99.90;;;;;;5035157;28;20052;-73
2023/11/22 05:30:34;;;;;;;38.63;26.17;;;-1.30;99.90;;;;;;5028054;28;20095;-72
2023/11/22 05:33:01;;;;;;;38.88;26.70;;;-1.30;99.90;;;;;;5027309;28;20065;-73
2023/11/22 05:35:27;;;;;;;34.72;25.98;;;-1.30;99.90;;;;;;5023175;28;20049;-72
2023/11/22 05:37:54;;;;;;;34.75;26.20;;;-1.40;99.90;;;;;;5012566;28;20060;-74
2023/11/22 05:40:21;;;;;;;36.40;26.50;;;-1.50;99.90;;;;;;5026604;28;20143;-73
2023/11/22 05:42:47;;;;;;;36.50;26.50;;;-1.40;99.90;;;;;;5021987;28;20846;-73
2023/11/22 05:45:15;;;;;;;34.25;25.40;;;-1.30;99.90;;;;;;5021666;28;20059;-73
2023/11/22 05:47:42;;;;;;;37.25;26.30;;;-1.20;99.90;;;;;;5024534;28;20056;-73
2023/11/22 05:50:09;;;;;;;48.28;26.98;;;-1.20;99.90;;;;;;5028566;28;20599;-74
2023/11/22 05:52:36;;;;;;;45.88;26.65;;;-1.20;99.90;;;;;;5028028;28;20079;-72
2023/11/22 05:55:04;;;;;;;47.22;25.77;;;-1.20;99.90;;;;;;5015378;28;20492;-74
2023/11/22 05:57:30;;;;;;;37.75;24.85;;;-1.20;99.90;;;;;;5017566;28;20042;-73
2023/11/22 05:59:57;;;;;;;33.63;22.98;;;-1.20;99.90;;;;;;5032128;28;20060;-73
2023/11/22 06:02:24;;;;;;;34.97;24.08;;;-1.20;99.90;;;;;;5009447;28;20531;-73
2023/11/22 06:04:51;;;;;;;34.95;24.13;;;-1.30;99.90;;;;;;5028510;28;20046;-74
2023/11/22 06:07:18;;;;;;;36.10;22.85;;;-1.30;99.90;;;;;;5021018;28;20132;-74
2023/11/22 06:09:45;;;;;;;34.20;22.05;;;-1.30;99.90;;;;;;5024001;28;20041;-74
2023/11/22 06:12:11;;;;;;;30.92;21.73;;;-1.40;99.90;;;;;;5031432;28;20110;-73
2023/11/22 06:14:38;;;;;;;38.97;22.98;;;-1.40;99.90;;;;;;5027189;28;20168;-73
2023/11/22 06:17:05;;;;;;;33.03;20.63;;;-1.50;99.90;;;;;;5025501;28;20102;-74
2023/11/22 06:19:32;;;;;;;31.10;19.60;;;-1.40;99.90;;;;;;5010736;28;20049;-73
2023/11/22 06:22:01;;;;;;;26.30;20.33;;;-1.40;99.90;;;;;;5021771;28;20064;-74
2023/11/22 06:24:28;;;;;;;31.63;22.05;;;-1.50;99.90;;;;;;5024513;28;20120;-75
2023/11/22 06:26:57;;;;;;;29.52;21.30;;;-1.50;99.90;;;;;;5026088;28;20041;-74
2023/11/22 06:29:24;;;;;;;27.80;21.00;;;-1.70;99.90;;;;;;5028972;28;20041;-74
2023/11/22 06:31:51;;;;;;;32.30;21.10;;;-1.60;99.90;;;;;;5023976;28;20063;-72
2023/11/22 06:34:18;;;;;;;37.35;23.13;;;-1.50;99.90;;;;;;5029013;28;20049;-72
2023/11/22 06:36:45;;;;;;;26.75;21.85;;;-1.30;99.90;;;;;;5026192;28;20097;-72
2023/11/22 06:39:13;;;;;;;33.38;24.00;;;-1.20;99.90;;;;;;5015233;28;20049;-72
2023/11/22 06:41:41;;;;;;;36.15;23.65;;;-1.00;99.90;;;;;;5029655;28;20122;-73
2023/11/22 06:44:09;;;;;;;36.97;24.38;;;-1.00;99.90;;;;;;5029052;28;20044;-75
2023/11/22 06:46:36;;;;;;;33.67;23.23;;;-0.90;99.90;;;;;;5019917;28;20057;-75
2023/11/22 06:49:04;;;;;;;33.00;24.15;;;-0.80;99.90;;;;;;5028904;28;20049;-75
2023/11/22 06:51:34;;;;;;;34.28;22.38;;;-0.80;99.90;;;;;;5026875;28;20098;-74
2023/11/22 06:54:01;;;;;;;27.98;22.73;;;-0.70;99.90;;;;;;5021843;28;20137;-75
2023/11/22 06:56:28;;;;;;;25.38;21.83;;;-0.70;99.90;;;;;;5010574;28;20769;-74
2023/11/22 06:58:57;;;;;;;29.05;21.52;;;-0.70;99.90;;;;;;5043040;28;20132;-74
2023/11/22 07:01:27;;;;;;;36.13;21.95;;;-0.70;99.90;;;;;;5022334;28;20033;-73
2023/11/22 07:03:54;;;;;;;30.38;22.75;;;-0.70;99.90;;;;;;5021639;28;20867;-75
2023/11/22 07:06:25;;;;;;;29.60;25.00;;;-0.70;99.90;;;;;;5009705;28;20463;-73
2023/11/22 07:08:52;;;;;;;25.60;23.15;;;-0.70;99.90;;;;;;5026098;28;20052;-74
2023/11/22 07:11:23;;;;;;;25.63;23.13;;;-0.70;99.90;;;;;;5005872;28;20046;-75
2023/11/22 07:13:51;;;;;;;24.55;21.05;;;-0.60;99.90;;;;;;5016147;28;20136;-71
2023/11/22 07:16:21;;;;;;;26.15;23.77;;;-0.50;99.90;;;;;;5003590;28;20059;-73
2023/11/22 07:18:48;;;;;;;25.40;23.08;;;-0.40;99.90;;;;;;5025533;28;20048;-74
2023/11/22 07:21:16;;;;;;;25.85;23.75;;;-0.30;99.90;;;;;;5007985;28;20135;-75
2023/11/22 07:23:45;;;;;;;28.70;26.27;;;-0.30;99.90;;;;;;5024754;28;20123;-73
2023/11/22 07:26:14;;;;;;;26.83;24.17;;;-0.30;99.90;;;;;;5021541;28;20723;-75
2023/11/22 07:28:41;;;;;;;24.60;22.23;;;-0.30;99.90;;;;;;5014580;28;20053;-73
2023/11/22 07:31:09;;;;;;;27.17;24.63;;;-0.30;99.90;;;;;;5027898;28;20036;-73
2023/11/22 07:33:36;;;;;;;26.45;24.00;;;-0.40;99.90;;;;;;5022085;28;20167;-75
2023/11/22 07:36:04;;;;;;;27.42;24.48;;;-0.30;99.90;;;;;;5011485;28;20075;-73
2023/11/22 07:38:31;;;;;;;25.98;23.48;;;-0.40;99.90;;;;;;5024482;28;20037;-74
2023/11/22 07:40:58;;;;;;;24.23;21.98;;;-0.40;99.90;;;;;;5023533;28;20422;-73
2023/11/22 07:43:26;;;;;;;24.48;22.27;;;-0.40;99.90;;;;;;5009322;28;20046;-73
2023/11/22 07:45:54;;;;;;;25.17;22.70;;;-0.50;99.90;;;;;;5021307;28;20615;-73
2023/11/22 07:48:22;;;;;;;24.17;21.58;;;-0.50;99.90;;;;;;5009078;28;20056;-73
2023/11/22 07:50:49;;;;;;;20.73;19.05;;;-0.40;99.90;;;;;;5023459;28;20136;-73
2023/11/22 07:53:17;;;;;;;22.58;20.60;;;-0.20;99.90;;;;;;5023974;28;20132;-73
2023/11/22 07:55:44;;;;;;;23.38;21.23;;;-0.20;99.90;;;;;;5019284;28;20044;-73
2023/11/22 07:58:11;;;;;;;23.48;21.27;;;-0.10;99.90;;;;;;5009810;28;20546;-73
2023/11/22 08:00:38;;;;;;;25.35;22.73;;;-0.10;99.90;;;;;;5024312;28;20057;-76
2023/11/22 08:03:06;;;;;;;25.83;23.23;;;-0.10;99.90;;;;;;5015606;28;20056;-73
2023/11/22 08:05:36;;;;;;;27.52;24.73;;;-0.10;99.90;;;;;;5021893;28;20033;-73
2023/11/22 08:08:07;;;;;;;27.73;24.92;;;0.00;99.90;;;;;;5022888;28;20052;-74
2023/11/22 08:10:35;;;;;;;30.30;27.35;;;0.00;99.90;;;;;;5011818;28;20047;-75
2023/11/22 08:13:03;;;;;;;27.98;25.25;;;0.10;99.90;;;;;;5027892;28;20148;-73
2023/11/22 08:15:31;;;;;;;27.40;25.17;;;0.10;99.90;;;;;;5027542;28;20574;-74
2023/11/22 08:18:00;;;;;;;31.20;28.27;;;0.20;99.90;;;;;;5025181;28;20055;-74
2023/11/22 08:20:27;;;;;;;28.52;26.20;;;0.30;99.90;;;;;;5029934;28;20087;-74
2023/11/22 08:22:57;;;;;;;26.52;24.33;;;0.40;99.90;;;;;;5023765;28;20041;-74
2023/11/22 08:25:24;;;;;;;26.50;24.60;;;0.50;99.90;;;;;;5030759;28;20522;-74
2023/11/22 08:27:53;;;;;;;29.25;26.63;;;0.70;99.90;;;;;;5024767;28;20049;-74
2023/11/22 08:30:20;;;;;;;28.52;26.25;;;0.90;99.90;;;;;;5030421;28;20134;-74
2023/11/22 08:32:53;;;;;;;29.42;27.23;;;1.10;99.90;;;;;;5021857;28;20053;-74
2023/11/22 08:35:23;;;;;;;27.67;25.80;;;1.30;99.90;;;;;;5050165;28;20045;-74
2023/11/22 08:37:50;;;;;;;27.85;25.60;;;1.60;99.90;;;;;;5012968;28;20041;-74
2023/11/22 08:40:20;;;;;;;29.80;27.90;;;1.80;99.90;;;;;;5014924;28;20059;-74
2023/11/22 08:42:48;;;;;;;33.03;30.90;;;1.80;99.90;;;;;;5021894;28;20350;-74
2023/11/22 08:45:15;;;;;;;33.05;30.67;;;1.80;99.90;;;;;;5042050;28;20061;-74
2023/11/22 08:47:42;;;;;;;34.92;32.50;;;1.80;99.90;;;;;;5026531;28;20079;-73
2023/11/22 08:50:12;;;;;;;38.28;35.67;;;1.60;99.90;;;;;;5030198;28;20106;-74
2023/11/22 08:52:41;;;;;;;36.53;34.35;;;1.50;99.90;;;;;;5044764;28;20048;-73
2023/11/22 08:55:09;;;;;;;38.13;35.72;;;1.40;99.90;;;;;;5046421;28;20625;-73
2023/11/22 08:57:40;;;;;;;36.78;34.58;;;1.30;99.90;;;;;;5007874;28;20064;-74
2023/11/22 09:00:09;;;;;;;37.33;35.13;;;1.30;99.90;;;;;;5020057;28;20085;-74
2023/11/22 09:02:37;;;;;;;33.00;30.95;;;1.30;99.90;;;;;;5024263;28;20103;-74
2023/11/22 09:05:07;;;;;;;32.85;30.95;;;1.40;99.90;;;;;;5028269;28;20049;-72
2023/11/22 09:07:35;;;;;;;35.00;32.50;;;1.30;99.90;;;;;;5010906;28;20699;-73
2023/11/22 09:10:09;;;;;;;35.42;33.35;;;1.30;99.90;;;;;;5026186;28;20045;-74
2023/11/22 09:12:40;;;;;;;36.70;34.60;;;1.30;99.90;;;;;;5011146;28;20156;-74
2023/11/22 09:15:09;;;;;;;36.83;34.72;;;1.50;99.90;;;;;;5025414;28;20099;-73
2023/11/22 09:17:43;;;;;;;46.17;42.42;;;1.60;99.90;;;;;;5027429;28;20049;-73
2023/11/22 09:20:11;;;;;;;37.20;34.72;;;1.70;99.90;;;;;;5031163;28;20076;-73
2023/11/22 09:22:47;;;;;;;57.25;49.60;;;1.90;99.90;;;;;;5025389;28;20041;-73
2023/11/22 09:25:22;;;;;;;68.10;54.95;;;2.00;99.90;;;;;;5014068;28;20075;-73
2023/11/22 09:27:51;;;;;;;50.45;46.20;;;2.00;99.90;;;;;;5011935;28;20071;-73
2023/11/22 09:30:35;;;;;;;53.08;48.13;;;2.20;99.90;;;;;;5028838;28;20121;-73
2023/11/22 09:33:04;;;;;;;48.37;44.47;;;2.10;99.90;;;;;;5024237;28;20689;-74
2023/11/22 09:35:31;;;;;;;41.00;38.30;;;2.20;99.90;;;;;;5011671;28;20287;-74
2023/11/22 09:38:00;;;;;;;40.53;37.92;;;2.50;99.90;;;;;;5023706;28;20535;-73
2023/11/22 09:40:28;;;;;;;44.65;41.40;;;2.80;99.90;;;;;;5021981;28;20057;-73
2023/11/22 09:42:57;;;;;;;38.90;36.35;;;2.80;99.90;;;;;;5021429;28;20049;-72
2023/11/22 09:45:25;;;;;;;40.42;37.83;;;2.80;99.90;;;;;;5026689;28;20135;-72
2023/11/22 09:47:53;;;;;;;40.85;38.45;;;2.70;99.90;;;;;;5012067;28;20868;-72
2023/11/22 09:50:23;;;;;;;48.40;45.50;;;2.50;99.90;;;;;;5029481;28;20049;-73
2023/11/22 09:52:53;;;;;;;46.60;43.90;;;2.30;99.90;;;;;;5019289;28;20049;-73
2023/11/22 09:55:24;;;;;;;47.40;44.72;;;2.30;99.90;;;;;;5025045;28;20037;-73
2023/11/22 09:57:51;;;;;;;43.95;41.33;;;2.40;99.90;;;;;;5026378;28;20049;-73
2023/11/22 10:00:21;;;;;;;43.53;40.83;;;2.30;99.90;;;;;;5015100;28;20099;-73
2023/11/22 10:02:49;;;;;;;44.30;41.80;;;2.40;99.90;;;;;;5022693;28;20040;-73
2023/11/22 10:05:16;;;;;;;43.53;40.83;;;2.50;99.90;;;;;;5028112;28;20044;-72
2023/11/22 10:07:47;;;;;;;42.58;40.10;;;2.40;99.90;;;;;;5025572;28;21424;-73
2023/11/22 10:10:15;;;;;;;44.58;41.78;;;2.40;99.90;;;;;;5023221;28;20107;-73
2023/11/22 10:12:43;;;;;;;44.53;41.90;;;2.40;99.90;;;;;;5024484;28;20425;-73
2023/11/22 10:15:18;;;;;;;45.63;42.70;;;2.50;99.90;;;;;;5027610;28;20053;-73
2023/11/22 10:18:00;;;;;;;40.33;37.72;;;2.40;99.90;;;;;;5012955;28;20052;-73
2023/11/22 10:20:39;;;;;;;43.13;40.45;;;2.50;99.90;;;;;;5024084;28;20060;-73
2023/11/22 10:23:09;;;;;;;41.60;39.10;;;2.60;99.90;;;;;;5024447;28;20127;-73
2023/11/22 10:25:47;;;;;;;40.92;38.60;;;2.80;99.90;;;;;;5025053;28;20049;-75
2023/11/22 10:28:14;;;;;;;41.47;39.08;;;2.80;99.90;;;;;;5045080;28;20053;-71
2023/11/22 10:30:42;;;;;;;42.70;40.17;;;2.60;99.90;;;;;;5033365;28;20116;-72
2023/11/22 10:33:13;;;;;;;41.00;38.35;;;2.20;99.90;;;;;;5036059;28;20041;-73
2023/11/22 10:35:53;;;;;;;42.85;40.25;;;2.30;99.90;;;;;;5017998;28;20126;-72
2023/11/22 10:38:21;;;;;;;42.10;39.70;;;2.30;99.90;;;;;;5018175;28;20048;-73
2023/11/22 10:40:48;;;;;;;45.17;42.50;;;2.30;99.90;;;;;;5030540;28;20033;-73
2023/11/22 10:43:17;;;;;;;46.65;43.97;;;2.30;99.90;;;;;;5026943;28;20554;-73
2023/11/22 10:45:51;;;;;;;45.60;42.90;;;2.10;99.90;;;;;;5029392;28;21640;-73
2023/11/22 10:48:20;;;;;;;41.55;39.00;;;2.10;99.90;;;;;;5015356;28;20126;-73
2023/11/22 10:50:48;;;;;;;42.40;40.05;;;2.20;99.90;;;;;;5027578;28;20423;-74
2023/11/22 10:53:20;;;;;;;47.17;44.28;;;2.40;99.90;;;;;;5013597;28;20061;-73
2023/11/22 10:55:48;;;;;;;42.38;40.08;;;2.40;99.90;;;;;;5027998;28;20607;-73
2023/11/22 10:58:20;;;;;;;46.88;44.17;;;2.30;99.90;;;;;;5024525;28;20041;-73
2023/11/22 11:00:51;;;;;;;42.25;39.65;;;2.30;99.90;;;;;;5014578;28;20045;-73
2023/11/22 11:03:20;;;;;;;38.63;36.22;;;2.30;99.90;;;;;;5010619;28;20053;-73
2023/11/22 11:05:57;;;;;;;39.17;36.88;;;2.50;99.90;;;;;;5024003;28;20045;-74
2023/11/22 11:08:27;;;;;;;41.20;38.60;;;2.60;99.90;;;;;;5014131;28;20057;-73
2023/11/22 11:10:58;;;;;;;41.25;38.10;;;2.70;99.90;;;;;;5024994;28;20045;-73
2023/11/22 11:13:27;;;;;;;39.95;37.47;;;2.20;99.90;;;;;;5028946;28;20160;-73
2023/11/22 11:15:55;;;;;;;38.42;35.95;;;2.20;99.90;;;;;;5023330;28;20620;-73
2023/11/22 11:18:23;;;;;;;39.53;36.70;;;2.30;99.90;;;;;;5032797;28;20595;-74
2023/11/22 11:20:55;;;;;;;37.80;35.30;;;2.30;99.90;;;;;;5024787;28;20041;-74
2023/11/22 11:23:25;;;;;;;38.72;36.33;;;2.40;99.90;;;;;;5029948;28;20044;-74
2023/11/22 11:25:59;;;;;;;40.45;37.95;;;2.30;99.90;;;;;;5020001;28;20596;-73
2023/11/22 11:28:45;;;;;;;39.00;36.50;;;2.40;99.90;;;;;;5025622;28;20044;-74
2023/11/22 11:31:17;;;;;;;39.10;36.50;;;2.40;99.90;;;;;;5011344;28;20045;-74
2023/11/22 11:34:11;;;;;;;41.42;38.83;;;2.40;99.90;;;;;;5024493;28;20611;-74
2023/11/22 11:36:38;;;;;;;41.42;38.72;;;2.20;99.90;;;;;;5032444;28;20511;-74
2023/11/22 11:39:14;;;;;;;41.97;39.40;;;2.30;99.90;;;;;;5024444;28;20042;-74
2023/11/22 11:41:41;;;;;;;40.10;37.72;;;2.40;99.90;;;;;;5028939;28;20049;-74
2023/11/22 11:44:09;;;;;;;42.47;39.88;;;2.40;99.90;;;;;;5012368;28;21204;-73
2023/11/22 11:46:38;;;;;;;44.53;41.85;;;2.50;99.90;;;;;;5026606;28;20049;-74
2023/11/22 11:49:12;;;;;;;39.00;36.47;;;2.60;99.90;;;;;;5023659;28;20049;-74
2023/11/22 11:51:39;;;;;;;33.03;30.75;;;2.60;99.90;;;;;;5025626;28;20048;-74
2023/11/22 11:54:07;;;;;;;36.35;33.75;;;2.50;99.90;;;;;;5018218;28;20042;-73
2023/11/22 11:56:34;;;;;;;33.72;31.33;;;2.70;99.90;;;;;;5027453;28;20143;-73
2023/11/22 11:59:03;;;;;;;35.95;33.38;;;2.70;99.90;;;;;;5025408;28;20056;-74
2023/11/22 12:01:32;;;;;;;38.40;35.90;;;2.80;99.90;;;;;;5005727;28;20048;-74
2023/11/22 12:04:03;;;;;;;37.58;35.22;;;2.90;99.90;;;;;;5023106;28;20064;-74
2023/11/22 12:06:33;;;;;;;38.63;36.20;;;3.10;99.90;;;;;;5032256;28;20625;-73
2023/11/22 12:09:03;;;;;;;38.95;36.38;;;3.30;99.90;;;;;;5018428;28;20053;-74
2023/11/22 12:11:30;;;;;;;36.65;34.35;;;3.30;99.90;;;;;;5025327;28;20056;-74
2023/11/22 12:13:58;;;;;;;37.60;35.13;;;3.30;99.90;;;;;;5029421;28;20049;-73
2023/11/22 12:16:27;;;;;;;36.67;34.35;;;3.30;99.90;;;;;;5047788;28;20044;-73
2023/11/22 12:18:55;;;;;;;38.08;35.63;;;3.50;99.90;;;;;;5028870;28;20080;-74
2023/11/22 12:21:23;;;;;;;40.22;37.63;;;3.40;99.90;;;;;;5027194;28;20049;-74
2023/11/22 12:23:50;;;;;;;39.97;37.28;;;3.40;99.90;;;;;;5027506;28;20069;-74
2023/11/22 12:26:21;;;;;;;39.13;36.63;;;3.40;99.90;;;;;;5016780;28;20056;-73
2023/11/22 12:28:49;;;;;;;39.13;36.72;;;3.50;99.90;;;;;;5025811;28;20138;-74
2023/11/22 12:31:34;;;;;;;39.40;36.92;;;3.50;99.90;;;;;;5027513;28;20041;-74
2023/11/22 12:34:05;;;;;;;39.63;37.13;;;3.60;99.90;;;;;;5029201;28;20050;-74
2023/11/22 12:36:34;;;;;;;43.35;40.55;;;3.50;99.90;;;;;;5030834;28;20095;-74
2023/11/22 12:39:03;;;;;;;44.70;41.78;;;3.30;99.90;;;;;;5021997;28;20550;-73